sensor_id;sensor_type;location;lat;lon;timestamp;P1;durP1;ratioP1;P2;durP2;ratioP2
69970;SDS011;57301;50.328;8.542;2022-07-23T00:00:12;7.90;;;6.63;;
69970;SDS011;57301;50.328;8.542;2022-07-23T00:02:39;9.27;;;6.82;;
69970;SDS011;57301;50.328;8.542;2022-07-23T00:05:06;9.73;;;6.73;;
69970;SDS011;57301;50.328;8.542;2022-07-23T00:07:33;9.55;;;6.22;;
69970;SDS011;57301;50.328;8.542;2022-07-23T00:09:59;9.65;;;6.82;;
69970;SDS011;57301;50.328;8.542;2022-07-23T00:12:26;9.05;;;6.57;;
69970;SDS011;57301;50.328;8.542;2022-07-23T00:14:53;8.00;;;6.28;;
69970;SDS011;57301;50.328;8.542;2022-07-23T00:17:19;8.90;;;7.07;;
69970;SDS011;57301;50.328;8.542;2022-07-23T00:19:46;10.80;;;6.80;;
69970;SDS011;57301;50.328;8.542;2022-07-23T00:22:12;10.18;;;7.22;;
69970;SDS011;57301;50.328;8.542;2022-07-23T00:24:39;8.77;;;6.07;;
69970;SDS011;57301;50.328;8.542;2022-07-23T00:27:05;12.15;;;6.85;;
69970;SDS011;57301;50.328;8.542;2022-07-23T00:29:33;11.50;;;6.90;;
69970;SDS011;57301;50.328;8.542;2022-07-23T00:32:00;12.02;;;7.25;;
69970;SDS011;57301;50.328;8.542;2022-07-23T00:34:26;10.77;;;6.97;;
69970;SDS011;57301;50.328;8.542;2022-07-23T00:36:53;10.30;;;7.10;;
69970;SDS011;57301;50.328;8.542;2022-07-23T00:39:22;10.20;;;6.97;;
69970;SDS011;57301;50.328;8.542;2022-07-23T00:41:49;10.07;;;6.90;;
69970;SDS011;57301;50.328;8.542;2022-07-23T00:46:48;11.68;;;6.95;;
69970;SDS011;57301;50.328;8.542;2022-07-23T00:49:28;11.32;;;7.75;;
69970;SDS011;57301;50.328;8.542;2022-07-23T00:51:56;10.10;;;7.28;;
69970;SDS011;57301;50.328;8.542;2022-07-23T00:54:25;11.03;;;7.07;;
69970;SDS011;57301;50.328;8.542;2022-07-23T00:56:52;11.93;;;7.35;;
69970;SDS011;57301;50.328;8.542;2022-07-23T00:59:20;13.10;;;7.57;;
69970;SDS011;57301;50.328;8.542;2022-07-23T01:01:46;11.30;;;7.15;;
69970;SDS011;57301;50.328;8.542;2022-07-23T01:04:15;11.32;;;7.50;;
69970;SDS011;57301;50.328;8.542;2022-07-23T01:06:42;11.77;;;7.53;;
69970;SDS011;57301;50.328;8.542;2022-07-23T01:09:11;9.95;;;7.38;;
69970;SDS011;57301;50.328;8.542;2022-07-23T01:11:38;14.13;;;7.80;;
69970;SDS011;57301;50.328;8.542;2022-07-23T01:14:11;10.65;;;7.28;;
69970;SDS011;57301;50.328;8.542;2022-07-23T01:16:39;12.57;;;7.72;;
69970;SDS011;57301;50.328;8.542;2022-07-23T01:19:06;12.60;;;7.77;;
69970;SDS011;57301;50.328;8.542;2022-07-23T01:21:37;11.40;;;6.85;;
69970;SDS011;57301;50.328;8.542;2022-07-23T01:24:08;11.88;;;7.60;;
69970;SDS011;57301;50.328;8.542;2022-07-23T01:26:36;9.05;;;7.03;;
69970;SDS011;57301;50.328;8.542;2022-07-23T01:29:03;11.25;;;6.90;;
69970;SDS011;57301;50.328;8.542;2022-07-23T01:31:31;11.17;;;7.60;;
69970;SDS011;57301;50.328;8.542;2022-07-23T01:33:57;9.88;;;6.95;;
69970;SDS011;57301;50.328;8.542;2022-07-23T01:36:25;10.98;;;7.40;;
69970;SDS011;57301;50.328;8.542;2022-07-23T01:38:52;11.73;;;7.65;;
69970;SDS011;57301;50.328;8.542;2022-07-23T01:41:18;11.48;;;7.68;;
69970;SDS011;57301;50.328;8.542;2022-07-23T01:43:45;10.77;;;7.60;;
69970;SDS011;57301;50.328;8.542;2022-07-23T01:46:12;10.13;;;7.18;;
69970;SDS011;57301;50.328;8.542;2022-07-23T01:48:38;13.15;;;7.47;;
69970;SDS011;57301;50.328;8.542;2022-07-23T01:51:05;10.90;;;7.68;;
69970;SDS011;57301;50.328;8.542;2022-07-23T01:53:32;10.50;;;7.60;;
69970;SDS011;57301;50.328;8.542;2022-07-23T01:55:58;10.97;;;7.07;;
69970;SDS011;57301;50.328;8.542;2022-07-23T01:58:25;13.00;;;6.90;;
69970;SDS011;57301;50.328;8.542;2022-07-23T02:00:53;12.80;;;7.95;;
69970;SDS011;57301;50.328;8.542;2022-07-23T02:03:20;10.65;;;7.18;;
69970;SDS011;57301;50.328;8.542;2022-07-23T02:05:48;11.65;;;7.72;;
69970;SDS011;57301;50.328;8.542;2022-07-23T02:08:14;11.17;;;7.73;;
69970;SDS011;57301;50.328;8.542;2022-07-23T02:10:41;9.63;;;7.60;;
69970;SDS011;57301;50.328;8.542;2022-07-23T02:13:08;11.90;;;7.45;;
69970;SDS011;57301;50.328;8.542;2022-07-23T02:15:35;12.73;;;8.05;;
69970;SDS011;57301;50.328;8.542;2022-07-23T02:18:01;11.73;;;7.68;;
69970;SDS011;57301;50.328;8.542;2022-07-23T02:20:31;14.53;;;7.70;;
69970;SDS011;57301;50.328;8.542;2022-07-23T02:22:58;11.38;;;7.75;;
69970;SDS011;57301;50.328;8.542;2022-07-23T02:25:24;11.73;;;7.90;;
69970;SDS011;57301;50.328;8.542;2022-07-23T02:27:51;11.63;;;7.90;;
69970;SDS011;57301;50.328;8.542;2022-07-23T02:30:17;10.38;;;7.78;;
69970;SDS011;57301;50.328;8.542;2022-07-23T02:32:44;11.10;;;7.57;;
69970;SDS011;57301;50.328;8.542;2022-07-23T02:35:10;15.35;;;8.30;;
69970;SDS011;57301;50.328;8.542;2022-07-23T02:37:39;10.27;;;8.13;;
69970;SDS011;57301;50.328;8.542;2022-07-23T02:40:05;12.25;;;7.68;;
69970;SDS011;57301;50.328;8.542;2022-07-23T02:42:32;12.13;;;8.30;;
69970;SDS011;57301;50.328;8.542;2022-07-23T02:44:59;14.87;;;9.10;;
69970;SDS011;57301;50.328;8.542;2022-07-23T02:47:25;11.65;;;8.30;;
69970;SDS011;57301;50.328;8.542;2022-07-23T02:49:52;11.90;;;8.70;;
69970;SDS011;57301;50.328;8.542;2022-07-23T02:52:19;13.32;;;9.10;;
69970;SDS011;57301;50.328;8.542;2022-07-23T02:54:45;13.60;;;8.23;;
69970;SDS011;57301;50.328;8.542;2022-07-23T02:57:12;12.23;;;8.13;;
69970;SDS011;57301;50.328;8.542;2022-07-23T02:59:38;14.27;;;8.65;;
69970;SDS011;57301;50.328;8.542;2022-07-23T03:02:05;13.02;;;9.07;;
69970;SDS011;57301;50.328;8.542;2022-07-23T03:04:31;11.88;;;9.10;;
69970;SDS011;57301;50.328;8.542;2022-07-23T03:06:58;12.45;;;9.30;;
69970;SDS011;57301;50.328;8.542;2022-07-23T03:09:25;15.73;;;9.30;;
69970;SDS011;57301;50.328;8.542;2022-07-23T03:11:51;15.20;;;9.60;;
69970;SDS011;57301;50.328;8.542;2022-07-23T03:14:17;14.38;;;9.85;;
69970;SDS011;57301;50.328;8.542;2022-07-23T03:16:44;14.52;;;9.75;;
69970;SDS011;57301;50.328;8.542;2022-07-23T03:19:10;16.73;;;10.15;;
69970;SDS011;57301;50.328;8.542;2022-07-23T03:21:37;13.87;;;9.67;;
69970;SDS011;57301;50.328;8.542;2022-07-23T03:24:09;14.65;;;9.98;;
69970;SDS011;57301;50.328;8.542;2022-07-23T03:26:36;15.13;;;10.18;;
69970;SDS011;57301;50.328;8.542;2022-07-23T03:29:02;12.73;;;9.30;;
69970;SDS011;57301;50.328;8.542;2022-07-23T03:31:30;13.43;;;9.10;;
69970;SDS011;57301;50.328;8.542;2022-07-23T03:34:00;12.03;;;8.83;;
69970;SDS011;57301;50.328;8.542;2022-07-23T03:36:27;13.32;;;9.32;;
69970;SDS011;57301;50.328;8.542;2022-07-23T03:38:53;15.00;;;9.98;;
69970;SDS011;57301;50.328;8.542;2022-07-23T03:41:21;15.15;;;9.70;;
69970;SDS011;57301;50.328;8.542;2022-07-23T03:43:47;14.13;;;9.32;;
69970;SDS011;57301;50.328;8.542;2022-07-23T03:46:14;13.93;;;9.23;;
69970;SDS011;57301;50.328;8.542;2022-07-23T03:48:40;13.68;;;9.88;;
69970;SDS011;57301;50.328;8.542;2022-07-23T03:51:07;14.95;;;9.55;;
69970;SDS011;57301;50.328;8.542;2022-07-23T03:53:33;14.93;;;10.00;;
69970;SDS011;57301;50.328;8.542;2022-07-23T03:56:00;15.75;;;11.02;;
69970;SDS011;57301;50.328;8.542;2022-07-23T03:58:27;15.70;;;10.03;;
69970;SDS011;57301;50.328;8.542;2022-07-23T04:00:53;14.25;;;9.73;;
69970;SDS011;57301;50.328;8.542;2022-07-23T04:03:19;13.70;;;9.40;;
69970;SDS011;57301;50.328;8.542;2022-07-23T04:05:46;13.93;;;9.88;;
69970;SDS011;57301;50.328;8.542;2022-07-23T04:08:12;13.80;;;9.13;;
69970;SDS011;57301;50.328;8.542;2022-07-23T04:10:39;13.70;;;9.43;;
69970;SDS011;57301;50.328;8.542;2022-07-23T04:13:05;15.98;;;10.02;;
69970;SDS011;57301;50.328;8.542;2022-07-23T04:15:32;14.75;;;10.20;;
69970;SDS011;57301;50.328;8.542;2022-07-23T04:17:58;16.42;;;9.68;;
69970;SDS011;57301;50.328;8.542;2022-07-23T04:20:25;14.98;;;9.65;;
69970;SDS011;57301;50.328;8.542;2022-07-23T04:22:51;15.80;;;9.83;;
69970;SDS011;57301;50.328;8.542;2022-07-23T04:25:18;15.48;;;9.30;;
69970;SDS011;57301;50.328;8.542;2022-07-23T04:27:44;16.75;;;10.55;;
69970;SDS011;57301;50.328;8.542;2022-07-23T04:30:11;16.90;;;10.45;;
69970;SDS011;57301;50.328;8.542;2022-07-23T04:32:37;15.73;;;10.05;;
69970;SDS011;57301;50.328;8.542;2022-07-23T04:35:04;16.77;;;10.73;;
69970;SDS011;57301;50.328;8.542;2022-07-23T04:37:31;16.02;;;10.30;;
69970;SDS011;57301;50.328;8.542;2022-07-23T04:39:57;17.02;;;11.55;;
69970;SDS011;57301;50.328;8.542;2022-07-23T04:42:24;16.17;;;10.85;;
69970;SDS011;57301;50.328;8.542;2022-07-23T04:44:51;17.02;;;10.27;;
69970;SDS011;57301;50.328;8.542;2022-07-23T04:47:20;15.63;;;10.37;;
69970;SDS011;57301;50.328;8.542;2022-07-23T04:49:48;14.50;;;10.32;;
69970;SDS011;57301;50.328;8.542;2022-07-23T04:52:14;15.73;;;11.07;;
69970;SDS011;57301;50.328;8.542;2022-07-23T04:54:41;16.20;;;9.82;;
69970;SDS011;57301;50.328;8.542;2022-07-23T04:57:08;16.63;;;10.52;;
69970;SDS011;57301;50.328;8.542;2022-07-23T04:59:34;13.63;;;9.40;;
69970;SDS011;57301;50.328;8.542;2022-07-23T05:02:01;15.18;;;9.82;;
69970;SDS011;57301;50.328;8.542;2022-07-23T05:04:27;14.18;;;9.70;;
69970;SDS011;57301;50.328;8.542;2022-07-23T05:06:54;14.40;;;10.32;;
69970;SDS011;57301;50.328;8.542;2022-07-23T05:09:21;14.27;;;9.60;;
69970;SDS011;57301;50.328;8.542;2022-07-23T05:11:47;15.40;;;10.57;;
69970;SDS011;57301;50.328;8.542;2022-07-23T05:14:14;15.30;;;10.60;;
69970;SDS011;57301;50.328;8.542;2022-07-23T05:16:40;15.32;;;10.30;;
69970;SDS011;57301;50.328;8.542;2022-07-23T05:19:07;12.35;;;9.30;;
69970;SDS011;57301;50.328;8.542;2022-07-23T05:21:33;12.95;;;9.75;;
69970;SDS011;57301;50.328;8.542;2022-07-23T05:24:00;13.90;;;8.90;;
69970;SDS011;57301;50.328;8.542;2022-07-23T05:26:26;13.25;;;9.63;;
69970;SDS011;57301;50.328;8.542;2022-07-23T05:28:53;14.73;;;9.45;;
69970;SDS011;57301;50.328;8.542;2022-07-23T05:31:19;12.57;;;8.70;;
69970;SDS011;57301;50.328;8.542;2022-07-23T05:33:46;11.45;;;8.15;;
69970;SDS011;57301;50.328;8.542;2022-07-23T05:36:12;11.47;;;7.43;;
69970;SDS011;57301;50.328;8.542;2022-07-23T05:38:39;12.20;;;7.57;;
69970;SDS011;57301;50.328;8.542;2022-07-23T05:41:06;12.82;;;7.45;;
69970;SDS011;57301;50.328;8.542;2022-07-23T05:43:32;10.18;;;7.38;;
69970;SDS011;57301;50.328;8.542;2022-07-23T05:45:59;9.05;;;6.57;;
69970;SDS011;57301;50.328;8.542;2022-07-23T05:48:25;9.33;;;6.07;;
69970;SDS011;57301;50.328;8.542;2022-07-23T05:50:52;8.20;;;5.85;;
69970;SDS011;57301;50.328;8.542;2022-07-23T05:53:19;8.68;;;6.68;;
69970;SDS011;57301;50.328;8.542;2022-07-23T05:55:45;9.40;;;6.00;;
69970;SDS011;57301;50.328;8.542;2022-07-23T05:58:12;8.75;;;5.93;;
69970;SDS011;57301;50.328;8.542;2022-07-23T06:00:38;10.73;;;5.43;;
69970;SDS011;57301;50.328;8.542;2022-07-23T06:03:05;9.27;;;5.43;;
69970;SDS011;57301;50.328;8.542;2022-07-23T06:05:32;9.15;;;5.80;;
69970;SDS011;57301;50.328;8.542;2022-07-23T06:07:58;8.55;;;5.85;;
69970;SDS011;57301;50.328;8.542;2022-07-23T06:10:24;8.43;;;5.93;;
69970;SDS011;57301;50.328;8.542;2022-07-23T06:12:51;7.67;;;5.80;;
69970;SDS011;57301;50.328;8.542;2022-07-23T06:15:21;8.93;;;6.15;;
69970;SDS011;57301;50.328;8.542;2022-07-23T06:17:47;8.88;;;5.70;;
69970;SDS011;57301;50.328;8.542;2022-07-23T06:20:14;7.75;;;5.45;;
69970;SDS011;57301;50.328;8.542;2022-07-23T06:22:41;9.30;;;5.47;;
69970;SDS011;57301;50.328;8.542;2022-07-23T06:25:07;8.23;;;5.20;;
69970;SDS011;57301;50.328;8.542;2022-07-23T06:27:45;5.97;;;4.85;;
69970;SDS011;57301;50.328;8.542;2022-07-23T06:30:12;7.15;;;5.20;;
69970;SDS011;57301;50.328;8.542;2022-07-23T06:32:42;7.80;;;5.70;;
69970;SDS011;57301;50.328;8.542;2022-07-23T06:35:11;8.02;;;5.03;;
69970;SDS011;57301;50.328;8.542;2022-07-23T06:37:37;8.47;;;5.00;;
69970;SDS011;57301;50.328;8.542;2022-07-23T06:40:04;7.32;;;4.80;;
69970;SDS011;57301;50.328;8.542;2022-07-23T06:42:31;7.88;;;5.25;;
69970;SDS011;57301;50.328;8.542;2022-07-23T06:44:58;7.40;;;5.70;;
69970;SDS011;57301;50.328;8.542;2022-07-23T06:47:24;27.17;;;6.38;;
69970;SDS011;57301;50.328;8.542;2022-07-23T06:49:51;7.70;;;5.20;;
69970;SDS011;57301;50.328;8.542;2022-07-23T06:52:17;8.57;;;5.45;;
69970;SDS011;57301;50.328;8.542;2022-07-23T06:54:44;9.20;;;5.10;;
69970;SDS011;57301;50.328;8.542;2022-07-23T06:57:10;6.88;;;5.40;;
69970;SDS011;57301;50.328;8.542;2022-07-23T06:59:37;7.15;;;5.20;;
69970;SDS011;57301;50.328;8.542;2022-07-23T07:02:07;7.23;;;4.53;;
69970;SDS011;57301;50.328;8.542;2022-07-23T07:04:34;8.73;;;4.75;;
69970;SDS011;57301;50.328;8.542;2022-07-23T07:07:01;7.97;;;4.63;;
69970;SDS011;57301;50.328;8.542;2022-07-23T07:09:27;7.80;;;4.85;;
69970;SDS011;57301;50.328;8.542;2022-07-23T07:11:54;6.88;;;4.38;;
69970;SDS011;57301;50.328;8.542;2022-07-23T07:14:20;7.53;;;4.90;;
69970;SDS011;57301;50.328;8.542;2022-07-23T07:16:47;8.35;;;5.10;;
69970;SDS011;57301;50.328;8.542;2022-07-23T07:19:14;5.95;;;4.78;;
69970;SDS011;57301;50.328;8.542;2022-07-23T07:21:40;6.40;;;4.70;;
69970;SDS011;57301;50.328;8.542;2022-07-23T07:24:07;7.32;;;4.53;;
69970;SDS011;57301;50.328;8.542;2022-07-23T07:26:33;5.83;;;4.27;;
69970;SDS011;57301;50.328;8.542;2022-07-23T07:29:00;7.60;;;4.55;;
69970;SDS011;57301;50.328;8.542;2022-07-23T07:31:27;7.13;;;4.40;;
69970;SDS011;57301;50.328;8.542;2022-07-23T07:33:54;6.93;;;4.88;;
69970;SDS011;57301;50.328;8.542;2022-07-23T07:36:23;6.28;;;4.50;;
69970;SDS011;57301;50.328;8.542;2022-07-23T07:38:50;9.00;;;4.77;;
69970;SDS011;57301;50.328;8.542;2022-07-23T07:41:16;7.18;;;4.60;;
69970;SDS011;57301;50.328;8.542;2022-07-23T07:43:43;6.43;;;4.53;;
69970;SDS011;57301;50.328;8.542;2022-07-23T07:46:09;8.48;;;4.97;;
69970;SDS011;57301;50.328;8.542;2022-07-23T07:48:37;5.50;;;4.28;;
69970;SDS011;57301;50.328;8.542;2022-07-23T07:51:04;6.17;;;3.90;;
69970;SDS011;57301;50.328;8.542;2022-07-23T07:53:31;6.55;;;4.10;;
69970;SDS011;57301;50.328;8.542;2022-07-23T07:55:58;11.55;;;8.23;;
69970;SDS011;57301;50.328;8.542;2022-07-23T07:58:24;7.97;;;6.18;;
69970;SDS011;57301;50.328;8.542;2022-07-23T08:00:51;6.20;;;3.60;;
69970;SDS011;57301;50.328;8.542;2022-07-23T08:03:18;4.70;;;3.33;;
69970;SDS011;57301;50.328;8.542;2022-07-23T08:05:45;4.88;;;3.47;;
69970;SDS011;57301;50.328;8.542;2022-07-23T08:08:11;5.40;;;3.10;;
69970;SDS011;57301;50.328;8.542;2022-07-23T08:10:41;4.70;;;3.40;;
69970;SDS011;57301;50.328;8.542;2022-07-23T08:13:08;4.80;;;3.58;;
69970;SDS011;57301;50.328;8.542;2022-07-23T08:15:42;4.77;;;3.30;;
69970;SDS011;57301;50.328;8.542;2022-07-23T08:18:11;4.93;;;3.60;;
69970;SDS011;57301;50.328;8.542;2022-07-23T08:20:37;4.60;;;3.53;;
69970;SDS011;57301;50.328;8.542;2022-07-23T08:23:05;8.82;;;7.07;;
69970;SDS011;57301;50.328;8.542;2022-07-23T08:25:34;6.43;;;3.85;;
69970;SDS011;57301;50.328;8.542;2022-07-23T08:28:06;5.33;;;3.43;;
69970;SDS011;57301;50.328;8.542;2022-07-23T08:30:35;5.68;;;3.50;;
69970;SDS011;57301;50.328;8.542;2022-07-23T08:33:03;5.72;;;3.78;;
69970;SDS011;57301;50.328;8.542;2022-07-23T08:35:34;4.10;;;3.40;;
69970;SDS011;57301;50.328;8.542;2022-07-23T08:38:03;5.43;;;3.40;;
69970;SDS011;57301;50.328;8.542;2022-07-23T08:40:34;5.03;;;3.57;;
69970;SDS011;57301;50.328;8.542;2022-07-23T08:43:09;6.25;;;3.65;;
69970;SDS011;57301;50.328;8.542;2022-07-23T08:45:41;6.20;;;4.22;;
69970;SDS011;57301;50.328;8.542;2022-07-23T08:48:11;6.10;;;3.60;;
69970;SDS011;57301;50.328;8.542;2022-07-23T08:50:43;6.05;;;4.03;;
69970;SDS011;57301;50.328;8.542;2022-07-23T08:53:16;7.80;;;5.03;;
69970;SDS011;57301;50.328;8.542;2022-07-23T08:55:48;5.82;;;3.85;;
69970;SDS011;57301;50.328;8.542;2022-07-23T08:58:19;5.63;;;3.92;;
69970;SDS011;57301;50.328;8.542;2022-07-23T09:00:53;7.13;;;3.42;;
69970;SDS011;57301;50.328;8.542;2022-07-23T09:03:23;4.53;;;3.22;;
69970;SDS011;57301;50.328;8.542;2022-07-23T09:05:53;6.10;;;3.33;;
69970;SDS011;57301;50.328;8.542;2022-07-23T09:08:45;5.05;;;3.70;;
69970;SDS011;57301;50.328;8.542;2022-07-23T09:11:13;5.30;;;3.33;;
69970;SDS011;57301;50.328;8.542;2022-07-23T09:13:49;5.80;;;3.20;;
69970;SDS011;57301;50.328;8.542;2022-07-23T09:16:25;5.85;;;3.50;;
69970;SDS011;57301;50.328;8.542;2022-07-23T09:18:55;5.47;;;3.23;;
69970;SDS011;57301;50.328;8.542;2022-07-23T09:24:01;4.07;;;3.15;;
69970;SDS011;57301;50.328;8.542;2022-07-23T09:29:03;6.78;;;4.93;;
69970;SDS011;57301;50.328;8.542;2022-07-23T09:34:14;5.75;;;3.08;;
69970;SDS011;57301;50.328;8.542;2022-07-23T09:36:50;4.70;;;3.15;;
69970;SDS011;57301;50.328;8.542;2022-07-23T09:39:24;6.03;;;3.20;;
69970;SDS011;57301;50.328;8.542;2022-07-23T09:41:52;5.65;;;3.22;;
69970;SDS011;57301;50.328;8.542;2022-07-23T09:44:19;4.43;;;3.20;;
69970;SDS011;57301;50.328;8.542;2022-07-23T09:46:57;11.05;;;8.55;;
69970;SDS011;57301;50.328;8.542;2022-07-23T09:49:24;7.18;;;5.50;;
69970;SDS011;57301;50.328;8.542;2022-07-23T09:51:55;6.32;;;3.60;;
69970;SDS011;57301;50.328;8.542;2022-07-23T09:54:24;5.55;;;3.20;;
69970;SDS011;57301;50.328;8.542;2022-07-23T09:56:57;8.20;;;3.23;;
69970;SDS011;57301;50.328;8.542;2022-07-23T09:59:27;5.90;;;3.47;;
69970;SDS011;57301;50.328;8.542;2022-07-23T10:01:57;5.63;;;3.47;;
69970;SDS011;57301;50.328;8.542;2022-07-23T10:04:27;4.68;;;3.20;;
69970;SDS011;57301;50.328;8.542;2022-07-23T10:06:58;7.35;;;3.65;;
69970;SDS011;57301;50.328;8.542;2022-07-23T10:09:27;4.70;;;2.93;;
69970;SDS011;57301;50.328;8.542;2022-07-23T10:11:59;4.03;;;3.10;;
69970;SDS011;57301;50.328;8.542;2022-07-23T10:14:36;4.57;;;3.63;;
69970;SDS011;57301;50.328;8.542;2022-07-23T10:17:04;4.93;;;3.25;;
69970;SDS011;57301;50.328;8.542;2022-07-23T10:19:32;4.65;;;3.60;;
69970;SDS011;57301;50.328;8.542;2022-07-23T10:22:09;5.20;;;3.70;;
69970;SDS011;57301;50.328;8.542;2022-07-23T10:24:44;5.00;;;3.70;;
69970;SDS011;57301;50.328;8.542;2022-07-23T10:41:38;6.68;;;4.75;;
69970;SDS011;57301;50.328;8.542;2022-07-23T10:49:30;5.97;;;4.50;;
69970;SDS011;57301;50.328;8.542;2022-07-23T10:57:11;8.15;;;5.05;;
69970;SDS011;57301;50.328;8.542;2022-07-23T11:02:41;6.13;;;4.50;;
69970;SDS011;57301;50.328;8.542;2022-07-23T11:05:10;8.82;;;5.93;;
69970;SDS011;57301;50.328;8.542;2022-07-23T11:10:33;9.82;;;6.30;;
69970;SDS011;57301;50.328;8.542;2022-07-23T11:18:56;9.63;;;5.88;;
69970;SDS011;57301;50.328;8.542;2022-07-23T11:24:05;8.32;;;6.15;;
69970;SDS011;57301;50.328;8.542;2022-07-23T11:34:50;8.95;;;5.97;;
69970;SDS011;57301;50.328;8.542;2022-07-23T11:40:04;6.75;;;5.25;;
69970;SDS011;57301;50.328;8.542;2022-07-23T11:42:37;6.83;;;5.20;;
69970;SDS011;57301;50.328;8.542;2022-07-23T11:45:20;8.60;;;6.40;;
69970;SDS011;57301;50.328;8.542;2022-07-23T11:47:47;7.93;;;6.07;;
69970;SDS011;57301;50.328;8.542;2022-07-23T11:50:13;7.72;;;5.60;;
69970;SDS011;57301;50.328;8.542;2022-07-23T11:52:40;6.50;;;5.15;;
69970;SDS011;57301;50.328;8.542;2022-07-23T11:55:08;7.30;;;4.97;;
69970;SDS011;57301;50.328;8.542;2022-07-23T11:57:37;6.97;;;5.18;;
69970;SDS011;57301;50.328;8.542;2022-07-23T12:00:12;7.25;;;4.90;;
69970;SDS011;57301;50.328;8.542;2022-07-23T12:02:51;7.63;;;5.43;;
69970;SDS011;57301;50.328;8.542;2022-07-23T12:05:24;6.45;;;5.40;;
69970;SDS011;57301;50.328;8.542;2022-07-23T12:07:54;7.87;;;5.07;;
69970;SDS011;57301;50.328;8.542;2022-07-23T12:10:23;6.63;;;5.38;;
69970;SDS011;57301;50.328;8.542;2022-07-23T12:12:54;7.65;;;5.70;;
69970;SDS011;57301;50.328;8.542;2022-07-23T12:15:28;8.73;;;6.68;;
69970;SDS011;57301;50.328;8.542;2022-07-23T12:17:58;7.43;;;5.60;;
69970;SDS011;57301;50.328;8.542;2022-07-23T12:20:28;7.23;;;5.67;;
69970;SDS011;57301;50.328;8.542;2022-07-23T12:22:57;6.80;;;5.25;;
69970;SDS011;57301;50.328;8.542;2022-07-23T12:25:29;6.65;;;5.15;;
69970;SDS011;57301;50.328;8.542;2022-07-23T12:28:04;7.53;;;6.10;;
69970;SDS011;57301;50.328;8.542;2022-07-23T12:30:38;6.70;;;5.13;;
69970;SDS011;57301;50.328;8.542;2022-07-23T12:33:10;5.77;;;5.17;;
69970;SDS011;57301;50.328;8.542;2022-07-23T12:35:42;5.93;;;4.90;;
69970;SDS011;57301;50.328;8.542;2022-07-23T12:38:12;7.32;;;5.07;;
69970;SDS011;57301;50.328;8.542;2022-07-23T12:43:08;7.38;;;5.10;;
69970;SDS011;57301;50.328;8.542;2022-07-23T12:48:22;7.10;;;5.35;;
69970;SDS011;57301;50.328;8.542;2022-07-23T12:50:53;6.70;;;5.13;;
69970;SDS011;57301;50.328;8.542;2022-07-23T12:53:31;7.25;;;5.20;;
69970;SDS011;57301;50.328;8.542;2022-07-23T12:56:00;6.95;;;5.65;;
69970;SDS011;57301;50.328;8.542;2022-07-23T12:58:54;13.23;;;11.60;;
69970;SDS011;57301;50.328;8.542;2022-07-23T13:01:27;7.20;;;6.10;;
69970;SDS011;57301;50.328;8.542;2022-07-23T13:04:10;6.03;;;4.90;;
69970;SDS011;57301;50.328;8.542;2022-07-23T13:06:43;6.95;;;5.13;;
69970;SDS011;57301;50.328;8.542;2022-07-23T13:09:16;6.72;;;5.72;;
69970;SDS011;57301;50.328;8.542;2022-07-23T13:11:51;8.03;;;6.30;;
69970;SDS011;57301;50.328;8.542;2022-07-23T13:14:18;9.07;;;6.03;;
69970;SDS011;57301;50.328;8.542;2022-07-23T13:16:47;6.18;;;4.90;;
69970;SDS011;57301;50.328;8.542;2022-07-23T13:19:15;7.60;;;5.53;;
69970;SDS011;57301;50.328;8.542;2022-07-23T13:21:44;14.25;;;12.23;;
69970;SDS011;57301;50.328;8.542;2022-07-23T13:24:12;13.30;;;10.70;;
69970;SDS011;57301;50.328;8.542;2022-07-23T13:26:38;8.65;;;5.10;;
69970;SDS011;57301;50.328;8.542;2022-07-23T13:29:05;8.48;;;5.20;;
69970;SDS011;57301;50.328;8.542;2022-07-23T13:31:35;6.35;;;4.75;;
69970;SDS011;57301;50.328;8.542;2022-07-23T13:34:04;6.78;;;5.20;;
69970;SDS011;57301;50.328;8.542;2022-07-23T13:36:31;7.07;;;5.20;;
69970;SDS011;57301;50.328;8.542;2022-07-23T13:38:57;7.00;;;5.88;;
69970;SDS011;57301;50.328;8.542;2022-07-23T13:41:25;6.38;;;5.00;;
69970;SDS011;57301;50.328;8.542;2022-07-23T13:43:51;8.63;;;5.10;;
69970;SDS011;57301;50.328;8.542;2022-07-23T13:46:18;6.25;;;4.68;;
69970;SDS011;57301;50.328;8.542;2022-07-23T13:48:46;6.57;;;4.30;;
69970;SDS011;57301;50.328;8.542;2022-07-23T13:51:13;7.35;;;4.70;;
69970;SDS011;57301;50.328;8.542;2022-07-23T13:53:39;6.53;;;4.43;;
69970;SDS011;57301;50.328;8.542;2022-07-23T13:56:06;7.38;;;4.20;;
69970;SDS011;57301;50.328;8.542;2022-07-23T13:58:33;8.00;;;4.78;;
69970;SDS011;57301;50.328;8.542;2022-07-23T14:01:02;6.67;;;4.87;;
69970;SDS011;57301;50.328;8.542;2022-07-23T14:03:28;6.18;;;4.50;;
69970;SDS011;57301;50.328;8.542;2022-07-23T14:05:55;5.45;;;4.50;;
69970;SDS011;57301;50.328;8.542;2022-07-23T14:08:22;4.90;;;4.10;;
69970;SDS011;57301;50.328;8.542;2022-07-23T14:10:49;5.80;;;4.20;;
69970;SDS011;57301;50.328;8.542;2022-07-23T14:13:16;5.73;;;4.10;;
69970;SDS011;57301;50.328;8.542;2022-07-23T14:15:46;5.28;;;4.00;;
69970;SDS011;57301;50.328;8.542;2022-07-23T14:18:13;7.03;;;4.13;;
69970;SDS011;57301;50.328;8.542;2022-07-23T14:20:40;5.32;;;3.80;;
69970;SDS011;57301;50.328;8.542;2022-07-23T14:23:06;4.70;;;3.97;;
69970;SDS011;57301;50.328;8.542;2022-07-23T14:25:33;5.77;;;4.67;;
69970;SDS011;57301;50.328;8.542;2022-07-23T14:27:59;7.00;;;4.20;;
69970;SDS011;57301;50.328;8.542;2022-07-23T14:30:26;6.25;;;4.55;;
69970;SDS011;57301;50.328;8.542;2022-07-23T14:32:59;9.75;;;7.93;;
69970;SDS011;57301;50.328;8.542;2022-07-23T14:35:26;7.68;;;5.95;;
69970;SDS011;57301;50.328;8.542;2022-07-23T14:37:52;4.87;;;4.10;;
69970;SDS011;57301;50.328;8.542;2022-07-23T14:40:20;5.28;;;3.80;;
69970;SDS011;57301;50.328;8.542;2022-07-23T14:42:48;5.57;;;4.00;;
69970;SDS011;57301;50.328;8.542;2022-07-23T14:45:15;5.65;;;4.00;;
69970;SDS011;57301;50.328;8.542;2022-07-23T14:47:44;5.35;;;3.60;;
69970;SDS011;57301;50.328;8.542;2022-07-23T14:50:12;5.57;;;3.50;;
69970;SDS011;57301;50.328;8.542;2022-07-23T14:52:40;5.22;;;3.50;;
69970;SDS011;57301;50.328;8.542;2022-07-23T14:55:06;5.50;;;3.70;;
69970;SDS011;57301;50.328;8.542;2022-07-23T14:57:33;7.75;;;3.30;;
69970;SDS011;57301;50.328;8.542;2022-07-23T15:00:00;4.90;;;3.45;;
69970;SDS011;57301;50.328;8.542;2022-07-23T15:02:26;5.37;;;3.27;;
69970;SDS011;57301;50.328;8.542;2022-07-23T15:04:54;5.75;;;3.17;;
69970;SDS011;57301;50.328;8.542;2022-07-23T15:07:21;4.40;;;3.42;;
69970;SDS011;57301;50.328;8.542;2022-07-23T15:09:50;4.97;;;3.35;;
69970;SDS011;57301;50.328;8.542;2022-07-23T15:12:17;5.75;;;3.50;;
69970;SDS011;57301;50.328;8.542;2022-07-23T15:14:47;5.23;;;3.50;;
69970;SDS011;57301;50.328;8.542;2022-07-23T15:17:13;6.45;;;4.05;;
69970;SDS011;57301;50.328;8.542;2022-07-23T15:19:40;7.72;;;3.67;;
69970;SDS011;57301;50.328;8.542;2022-07-23T15:22:07;6.00;;;3.67;;
69970;SDS011;57301;50.328;8.542;2022-07-23T15:24:34;6.28;;;3.40;;
69970;SDS011;57301;50.328;8.542;2022-07-23T15:27:00;7.37;;;4.43;;
69970;SDS011;57301;50.328;8.542;2022-07-23T15:29:27;7.82;;;6.05;;
69970;SDS011;57301;50.328;8.542;2022-07-23T15:31:54;4.40;;;3.47;;
69970;SDS011;57301;50.328;8.542;2022-07-23T15:34:24;5.70;;;3.75;;
69970;SDS011;57301;50.328;8.542;2022-07-23T15:36:52;5.85;;;3.75;;
69970;SDS011;57301;50.328;8.542;2022-07-23T15:39:18;5.20;;;3.47;;
69970;SDS011;57301;50.328;8.542;2022-07-23T15:41:45;4.43;;;3.22;;
69970;SDS011;57301;50.328;8.542;2022-07-23T15:44:13;3.88;;;3.20;;
69970;SDS011;57301;50.328;8.542;2022-07-23T15:46:54;4.38;;;3.30;;
69970;SDS011;57301;50.328;8.542;2022-07-23T15:49:25;5.75;;;4.10;;
69970;SDS011;57301;50.328;8.542;2022-07-23T15:51:52;5.27;;;3.63;;